createdAt,value
2018-08-16T00:01:29.560Z,71.10
2018-08-16T00:03:58.251Z,71.40
2018-08-16T00:06:26.963Z,72.00
2018-08-16T00:08:55.896Z,71.80
2018-08-16T00:11:24.867Z,71.70
2018-08-16T00:13:53.455Z,72.30
2018-08-16T00:16:22.141Z,73.30
2018-08-16T00:18:50.934Z,74.90
2018-08-16T00:21:19.748Z,75.60
2018-08-16T00:23:48.967Z,76.50
2018-08-16T00:26:17.606Z,76.90
2018-08-16T00:28:46.296Z,77.30
2018-08-16T00:31:15.122Z,76.50
2018-08-16T00:33:43.998Z,77.60
2018-08-16T00:36:14.888Z,76.50
2018-08-16T00:38:43.640Z,76.10
2018-08-16T00:41:14.808Z,74.80
2018-08-16T00:43:43.590Z,74.60
2018-08-16T00:46:12.254Z,74.60
2018-08-16T00:48:41.013Z,74.70
2018-08-16T00:51:09.682Z,75.00
2018-08-16T00:53:38.373Z,76.80
2018-08-16T00:56:07.035Z,75.20
2018-08-16T00:58:35.737Z,76.50
2018-08-16T01:01:06.127Z,76.80
2018-08-16T01:03:34.936Z,76.20
2018-08-16T01:06:03.665Z,76.40
2018-08-16T01:08:32.385Z,76.90
2018-08-16T01:11:01.104Z,77.40
2018-08-16T01:13:29.806Z,77.20
2018-08-16T01:15:58.517Z,77.60
2018-08-16T01:18:27.242Z,78.10
2018-08-16T01:20:55.908Z,78.90
2018-08-16T01:23:24.677Z,76.70
2018-08-16T01:25:53.502Z,75.40
2018-08-16T01:28:22.298Z,76.10
2018-08-16T01:30:51.066Z,75.50
2018-08-16T01:33:19.743Z,76.90
2018-08-16T01:35:48.570Z,77.30
2018-08-16T01:38:17.542Z,74.00
2018-08-16T01:40:46.237Z,74.80
2018-08-16T01:43:14.945Z,75.00
2018-08-16T01:45:43.792Z,75.20
2018-08-16T01:48:13.094Z,75.30
2018-08-16T01:50:41.998Z,75.40
2018-08-16T01:53:10.870Z,75.40
2018-08-16T01:55:39.567Z,75.50
2018-08-16T01:58:08.507Z,75.60
2018-08-16T02:00:37.150Z,73.70
2018-08-16T02:03:06.244Z,73.00
2018-08-16T02:05:34.971Z,73.80
2018-08-16T02:08:04.666Z,74.70
2018-08-16T02:10:33.428Z,75.70
2018-08-16T02:13:02.370Z,76.20
2018-08-16T02:15:31.316Z,76.60
2018-08-16T02:18:00.142Z,76.80
2018-08-16T02:20:29.252Z,76.90
2018-08-16T02:22:57.966Z,76.50
2018-08-16T02:25:26.618Z,76.30
2018-08-16T02:27:55.473Z,76.00
2018-08-16T02:30:24.184Z,74.90
2018-08-16T02:32:52.975Z,74.60
2018-08-16T02:35:21.690Z,74.80
2018-08-16T02:37:50.428Z,74.60
2018-08-16T02:40:19.510Z,74.00
2018-08-16T02:42:48.259Z,73.40
2018-08-16T02:45:16.918Z,73.70
2018-08-16T02:47:45.610Z,74.50
2018-08-16T02:50:14.286Z,74.60
2018-08-16T02:52:42.973Z,75.20
2018-08-16T02:55:12.826Z,75.80
2018-08-16T02:57:42.420Z,75.50
2018-08-16T03:00:11.117Z,75.40
2018-08-16T03:02:39.937Z,75.60
2018-08-16T03:05:08.698Z,75.60
2018-08-16T03:07:37.444Z,75.70
2018-08-16T03:10:07.324Z,76.20
2018-08-16T03:12:36.044Z,76.50
2018-08-16T03:15:06.624Z,76.40
2018-08-16T03:17:35.246Z,77.00
2018-08-16T03:20:04.174Z,77.90
2018-08-16T03:22:33.157Z,78.30
2018-08-16T03:25:01.814Z,78.60
2018-08-16T03:27:30.532Z,78.90
2018-08-16T03:29:59.201Z,78.90
2018-08-16T03:32:28.043Z,78.80
2018-08-16T03:34:56.849Z,78.90
2018-08-16T03:37:26.698Z,78.90
2018-08-16T03:39:55.436Z,78.60
2018-08-16T03:42:24.123Z,78.30
2018-08-16T03:44:52.952Z,78.40
2018-08-16T03:47:21.535Z,78.80
2018-08-16T03:49:50.232Z,79.20
2018-08-16T03:52:19.055Z,79.60
2018-08-16T03:54:47.844Z,79.80
2018-08-16T03:57:16.551Z,79.80
2018-08-16T03:59:45.215Z,79.80
2018-08-16T04:02:13.880Z,78.90
2018-08-16T04:04:42.879Z,80.70
2018-08-16T04:07:11.626Z,79.80
2018-08-16T04:09:40.390Z,80.20
2018-08-16T04:12:09.260Z,79.80
2018-08-16T04:14:37.999Z,79.30
2018-08-16T04:17:06.609Z,79.80
2018-08-16T04:19:35.339Z,79.80
2018-08-16T04:22:04.205Z,79.10
2018-08-16T04:24:32.979Z,78.70
2018-08-16T04:27:01.643Z,78.50
2018-08-16T04:29:30.433Z,79.30
2018-08-16T04:31:59.207Z,79.70
2018-08-16T04:34:28.036Z,80.00
2018-08-16T04:36:56.858Z,80.30
2018-08-16T04:39:25.537Z,80.50
2018-08-16T04:41:54.310Z,80.20
2018-08-16T04:44:22.975Z,80.30
2018-08-16T04:46:51.570Z,79.50
2018-08-16T04:49:21.485Z,79.50
2018-08-16T04:51:50.191Z,79.50
2018-08-16T04:54:20.954Z,79.40
2018-08-16T04:56:49.722Z,79.20
2018-08-16T04:59:18.355Z,79.10
2018-08-16T05:01:47.079Z,78.80
2018-08-16T05:04:15.991Z,79.10
2018-08-16T05:06:44.691Z,79.20
2018-08-16T05:09:13.603Z,79.70
2018-08-16T05:11:42.523Z,79.70
2018-08-16T05:14:11.682Z,79.70
2018-08-16T05:16:43.181Z,79.70
2018-08-16T05:19:12.061Z,79.30
2018-08-16T05:21:40.761Z,79.20
2018-08-16T05:24:09.388Z,79.10
2018-08-16T05:26:38.132Z,78.40
2018-08-16T05:29:06.979Z,77.80
2018-08-16T05:31:35.721Z,78.10
2018-08-16T05:34:04.427Z,78.00
2018-08-16T05:36:33.343Z,77.80
2018-08-16T05:39:02.194Z,78.10
2018-08-16T05:41:32.829Z,78.60
2018-08-16T05:44:01.617Z,78.50
2018-08-16T05:46:30.374Z,78.40
2018-08-16T05:48:59.034Z,78.20
2018-08-16T05:51:29.841Z,77.90
2018-08-16T05:53:58.975Z,78.00
2018-08-16T05:56:27.782Z,77.90
2018-08-16T05:58:56.471Z,77.60
2018-08-16T06:01:25.353Z,77.40
2018-08-16T06:03:54.703Z,77.20
2018-08-16T06:06:25.681Z,77.00
2018-08-16T06:08:56.186Z,76.80
2018-08-16T06:11:26.786Z,76.80
2018-08-16T06:13:55.855Z,76.30
2018-08-16T06:16:24.703Z,76.00
2018-08-16T06:18:56.152Z,75.80
2018-08-16T06:21:25.130Z,75.90
2018-08-16T06:23:53.910Z,75.60
2018-08-16T06:26:25.354Z,75.90
2018-08-16T06:28:54.320Z,75.60
2018-08-16T06:31:23.128Z,76.00
2018-08-16T06:33:54.036Z,76.50
2018-08-16T06:36:22.876Z,76.20
2018-08-16T06:38:51.637Z,76.40
2018-08-16T06:41:20.514Z,76.00
2018-08-16T06:43:51.756Z,76.10
2018-08-16T06:46:20.655Z,76.30
2018-08-16T06:48:49.565Z,76.00
2018-08-16T06:51:18.365Z,76.30
2018-08-16T06:53:47.046Z,75.40
2018-08-16T06:56:15.879Z,75.10
2018-08-16T06:58:44.730Z,74.40
2018-08-16T07:01:13.453Z,74.10
2018-08-16T07:03:42.219Z,73.80
2018-08-16T07:06:10.882Z,73.40
2018-08-16T07:08:39.755Z,73.00
2018-08-16T07:11:08.568Z,72.70
2018-08-16T07:13:44.031Z,72.20
2018-08-16T07:16:14.870Z,71.60
2018-08-16T07:18:43.580Z,71.70
2018-08-16T07:21:12.263Z,69.20
2018-08-16T07:23:40.930Z,66.80
2018-08-16T07:26:14.778Z,66.20
2018-08-16T07:28:43.564Z,65.50
2018-08-16T07:31:12.258Z,66.60
2018-08-16T07:33:40.979Z,65.50
2018-08-16T07:36:09.960Z,65.30
2018-08-16T07:38:38.828Z,65.10
2018-08-16T07:41:08.244Z,64.10
2018-08-16T07:43:36.882Z,63.40
2018-08-16T07:46:05.634Z,63.00
2018-08-16T07:48:34.221Z,63.10
2018-08-16T07:51:03.101Z,63.40
2018-08-16T07:53:31.990Z,63.50
2018-08-16T07:56:01.283Z,64.30
2018-08-16T07:58:30.084Z,63.50
2018-08-16T08:00:58.905Z,63.20
2018-08-16T08:03:27.627Z,63.10
2018-08-16T08:05:56.378Z,62.40
2018-08-16T08:08:25.261Z,61.30
2018-08-16T08:10:54.169Z,61.20
2018-08-16T08:13:23.000Z,60.50
2018-08-16T08:15:51.566Z,60.50
2018-08-16T08:18:20.347Z,60.50
2018-08-16T08:20:49.082Z,58.40
2018-08-16T08:23:17.862Z,59.20
2018-08-16T08:25:46.698Z,58.60
2018-08-16T08:28:22.322Z,58.40
2018-08-16T08:30:51.130Z,57.90
2018-08-16T08:33:19.988Z,58.30
2018-08-16T08:35:59.535Z,58.50
2018-08-16T08:38:28.301Z,58.40
2018-08-16T08:40:57.019Z,57.80
2018-08-16T08:43:36.715Z,57.60
2018-08-16T08:46:05.511Z,57.00
2018-08-16T08:48:34.144Z,56.30
2018-08-16T08:51:03.004Z,55.80
2018-08-16T08:54:46.746Z,55.60
2018-08-16T08:57:26.508Z,55.30
2018-08-16T08:59:55.170Z,55.60
2018-08-16T09:02:24.192Z,56.00
2018-08-16T09:04:52.938Z,56.30
2018-08-16T09:07:22.355Z,55.80
2018-08-16T09:11:04.996Z,55.30
2018-08-16T09:13:45.260Z,54.50
2018-08-16T09:16:36.883Z,54.20
2018-08-16T09:19:06.860Z,53.80
2018-08-16T09:21:35.830Z,52.90
2018-08-16T09:24:04.694Z,53.20
2018-08-16T09:26:38.665Z,52.70
2018-08-16T09:29:17.357Z,52.50
2018-08-16T09:31:57.641Z,52.00
2018-08-16T09:34:27.039Z,51.90
2018-08-16T09:36:55.719Z,52.10
2018-08-16T09:39:24.640Z,52.00
2018-08-16T09:41:53.301Z,53.00
2018-08-16T09:44:22.003Z,52.00
2018-08-16T09:47:02.690Z,50.70
2018-08-16T09:49:32.943Z,50.00
2018-08-16T09:52:01.914Z,50.80
2018-08-16T09:54:30.599Z,49.70
2018-08-16T09:57:00.572Z,50.10
2018-08-16T09:59:30.668Z,50.00
2018-08-16T10:01:59.501Z,49.10
2018-08-16T10:04:28.550Z,47.50
2018-08-16T10:06:57.528Z,46.80
2018-08-16T10:09:27.460Z,47.70
2018-08-16T10:11:56.994Z,46.80
2018-08-16T10:14:25.825Z,46.30
2018-08-16T10:16:54.826Z,46.80
2018-08-16T10:19:24.317Z,44.90
2018-08-16T10:21:53.056Z,43.90
2018-08-16T10:24:21.939Z,43.30
2018-08-16T10:26:51.670Z,42.90
2018-08-16T10:29:30.366Z,41.90
2018-08-16T10:32:11.277Z,39.40
2018-08-16T10:34:40.788Z,38.40
2018-08-16T10:37:09.787Z,35.60
2018-08-16T10:39:38.560Z,32.90
2018-08-16T10:42:07.225Z,33.70
2018-08-16T10:44:35.987Z,35.50
2018-08-16T10:47:04.767Z,35.60
2018-08-16T10:49:33.592Z,33.70
2018-08-16T10:52:02.314Z,33.60
2018-08-16T10:54:31.166Z,34.80
2018-08-16T10:56:59.928Z,34.10
2018-08-16T10:59:29.129Z,33.00
2018-08-16T11:01:57.967Z,32.40
2018-08-16T11:04:26.748Z,30.10
2018-08-16T11:06:55.418Z,29.80
2018-08-16T11:09:24.077Z,30.50
2018-08-16T11:11:52.988Z,29.30
2018-08-16T11:14:23.599Z,28.80
2018-08-16T11:16:52.319Z,30.20
2018-08-16T11:19:20.982Z,29.80
2018-08-16T11:21:49.734Z,30.90
2018-08-16T11:24:18.398Z,33.10
2018-08-16T11:26:47.088Z,32.90
2018-08-16T11:29:15.815Z,32.20
2018-08-16T11:31:44.616Z,29.80
2018-08-16T11:34:13.441Z,28.70
2018-08-16T11:36:42.164Z,29.60
2018-08-16T11:39:11.010Z,29.30
2018-08-16T11:41:39.710Z,28.70
2018-08-16T11:44:09.611Z,28.90
2018-08-16T11:46:38.657Z,28.60
2018-08-16T11:49:07.403Z,29.30
2018-08-16T11:51:36.454Z,27.70
2018-08-16T11:54:05.126Z,27.00
2018-08-16T11:56:33.912Z,28.60
2018-08-16T11:59:02.617Z,28.40
2018-08-16T12:01:31.685Z,27.10
2018-08-16T12:04:00.496Z,25.90
2018-08-16T12:06:29.148Z,27.20
2018-08-16T12:08:57.904Z,27.60
2018-08-16T12:11:26.862Z,26.20
2018-08-16T12:13:56.207Z,26.60
2018-08-16T12:16:24.914Z,28.00
2018-08-16T12:18:53.600Z,28.00
2018-08-16T12:21:22.474Z,26.70
2018-08-16T12:23:51.149Z,26.60
2018-08-16T12:26:20.039Z,25.40
2018-08-16T12:28:49.011Z,23.80
2018-08-16T12:31:17.674Z,22.90
2018-08-16T12:33:47.314Z,23.40
2018-08-16T12:36:16.179Z,22.70
2018-08-16T12:38:44.840Z,23.10
2018-08-16T12:41:13.779Z,22.10
2018-08-16T12:43:42.455Z,21.60
2018-08-16T12:46:13.119Z,23.10
2018-08-16T12:48:41.874Z,22.50
2018-08-16T12:51:10.666Z,22.10
2018-08-16T12:53:39.506Z,22.10
2018-08-16T12:56:08.292Z,22.40
2018-08-16T12:58:38.318Z,23.60
2018-08-16T13:01:12.652Z,25.10
2018-08-16T13:03:47.363Z,25.30
2018-08-16T13:06:16.394Z,27.10
2018-08-16T13:08:45.543Z,26.50
2018-08-16T13:11:14.317Z,24.30
2018-08-16T13:13:43.149Z,23.20
2018-08-16T13:16:12.101Z,22.70
2018-08-16T13:18:41.010Z,23.30
2018-08-16T13:21:09.807Z,23.20
2018-08-16T13:23:38.740Z,23.10
2018-08-16T13:26:07.599Z,24.10
2018-08-16T13:28:36.250Z,24.00
2018-08-16T13:31:04.983Z,23.50
2018-08-16T13:33:33.662Z,22.30
2018-08-16T13:36:02.655Z,22.90
2018-08-16T13:38:31.506Z,22.00
2018-08-16T13:41:00.222Z,22.00
2018-08-16T13:43:29.040Z,21.90
2018-08-16T13:45:57.825Z,23.00
2018-08-16T13:48:26.640Z,23.40
2018-08-16T13:50:55.483Z,23.20
2018-08-16T13:53:24.182Z,24.00
2018-08-16T13:55:53.219Z,22.60
2018-08-16T13:58:21.955Z,23.40
2018-08-16T14:00:50.943Z,23.70
2018-08-16T14:03:19.863Z,23.80
2018-08-16T14:05:48.677Z,23.20
2018-08-16T14:08:17.354Z,22.60
2018-08-16T14:10:48.380Z,22.80
2018-08-16T14:13:18.417Z,23.70
2018-08-16T14:15:47.127Z,22.70
2018-08-16T14:18:15.799Z,23.00
2018-08-16T14:20:44.565Z,23.30
2018-08-16T14:23:13.353Z,22.90
2018-08-16T14:25:43.151Z,21.40
2018-08-16T14:28:12.671Z,20.80
2018-08-16T14:30:42.384Z,20.80
2018-08-16T14:33:11.146Z,21.80
2018-08-16T14:35:39.907Z,21.70
2018-08-16T14:38:10.761Z,20.90
2018-08-16T14:40:40.290Z,22.20
2018-08-16T14:43:09.090Z,22.60
2018-08-16T14:45:37.704Z,23.00
2018-08-16T14:48:10.491Z,22.80
2018-08-16T14:50:41.065Z,22.70
2018-08-16T14:53:10.011Z,22.80
2018-08-16T14:55:38.704Z,23.30
2018-08-16T14:58:07.973Z,25.20
2018-08-16T15:00:36.915Z,25.70
2018-08-16T15:03:05.584Z,26.60
2018-08-16T15:05:34.413Z,27.30
2018-08-16T15:08:11.519Z,28.00
2018-08-16T15:10:42.312Z,28.40
2018-08-16T15:13:11.270Z,28.70
2018-08-16T15:15:40.114Z,28.20
2018-08-16T15:18:09.080Z,29.50
2018-08-16T15:20:38.071Z,29.00
2018-08-16T15:23:07.675Z,29.90
2018-08-16T15:25:36.519Z,29.50
2018-08-16T15:28:05.333Z,28.90
2018-08-16T15:30:34.428Z,30.00
2018-08-16T15:33:03.100Z,30.00
2018-08-16T15:35:31.928Z,30.30
2018-08-16T15:38:00.703Z,30.70
2018-08-16T15:40:29.406Z,31.50
2018-08-16T15:42:58.200Z,31.40
2018-08-16T15:45:32.656Z,30.80
2018-08-16T15:48:13.062Z,30.30
2018-08-16T15:50:44.272Z,30.50
2018-08-16T15:53:13.188Z,30.60
2018-08-16T15:55:42.127Z,30.60
2018-08-16T15:58:11.696Z,31.20
2018-08-16T16:00:40.483Z,31.90
2018-08-16T16:03:09.387Z,31.60
2018-08-16T16:05:38.441Z,32.50
2018-08-16T16:08:07.260Z,33.40
2018-08-16T16:10:35.966Z,33.00
2018-08-16T16:13:04.679Z,32.20
2018-08-16T16:15:33.382Z,32.90
2018-08-16T16:18:04.567Z,32.60
2018-08-16T16:20:33.316Z,32.70
2018-08-16T16:23:02.017Z,33.30
2018-08-16T16:25:30.808Z,33.80
2018-08-16T16:27:59.523Z,33.80
2018-08-16T16:30:28.247Z,33.90
2018-08-16T16:32:57.192Z,34.00
2018-08-16T16:35:25.911Z,34.00
2018-08-16T16:37:55.763Z,33.30
2018-08-16T16:40:24.437Z,32.90
2018-08-16T16:42:53.112Z,33.30
2018-08-16T16:45:21.925Z,34.20
2018-08-16T16:47:50.531Z,34.80
2018-08-16T16:50:19.383Z,34.40
2018-08-16T16:52:49.218Z,34.30
2018-08-16T16:55:17.922Z,34.60
2018-08-16T16:57:46.562Z,34.70
2018-08-16T17:00:15.542Z,35.00
2018-08-16T17:02:44.206Z,34.60
2018-08-16T17:05:12.934Z,35.20
2018-08-16T17:07:41.720Z,34.90
2018-08-16T17:10:11.346Z,34.90
2018-08-16T17:12:40.385Z,34.40
2018-08-16T17:15:12.108Z,34.10
2018-08-16T17:17:41.277Z,34.20
2018-08-16T17:20:11.374Z,34.40
2018-08-16T17:22:40.391Z,34.30
2018-08-16T17:25:09.440Z,35.00
2018-08-16T17:27:38.266Z,35.20
2018-08-16T17:30:07.466Z,35.40
2018-08-16T17:32:36.876Z,35.00
2018-08-16T17:35:05.700Z,36.10
2018-08-16T17:37:34.391Z,36.30
2018-08-16T17:40:03.287Z,37.10
2018-08-16T17:42:32.156Z,36.40
2018-08-16T17:45:00.954Z,36.50
2018-08-16T17:47:32.197Z,36.50
2018-08-16T17:50:01.040Z,36.70
2018-08-16T17:52:29.821Z,36.90
2018-08-16T17:54:58.447Z,36.90
2018-08-16T17:57:27.130Z,37.40
2018-08-16T17:59:55.816Z,37.40
2018-08-16T18:02:25.265Z,37.20
2018-08-16T18:04:54.186Z,37.00
2018-08-16T18:07:22.987Z,36.90
2018-08-16T18:09:51.819Z,37.00
2018-08-16T18:12:20.852Z,37.20
2018-08-16T18:14:52.617Z,37.30
2018-08-16T18:17:21.402Z,37.20
2018-08-16T18:19:51.904Z,37.60
2018-08-16T18:22:20.625Z,38.10
2018-08-16T18:24:49.398Z,39.10
2018-08-16T18:27:18.236Z,40.50
2018-08-16T18:29:46.857Z,41.70
2018-08-16T18:32:15.606Z,42.50
2018-08-16T18:34:44.249Z,42.80
2018-08-16T18:37:15.724Z,43.20
2018-08-16T18:39:44.428Z,43.50
2018-08-16T18:42:13.361Z,43.90
2018-08-16T18:44:42.089Z,44.20
2018-08-16T18:47:10.892Z,44.60
2018-08-16T18:49:39.611Z,44.90
2018-08-16T18:52:08.426Z,45.10
2018-08-16T18:54:37.178Z,45.70
2018-08-16T18:57:06.387Z,46.20
2018-08-16T18:59:35.269Z,45.90
2018-08-16T19:02:03.931Z,46.90
2018-08-16T19:04:32.784Z,47.10
2018-08-16T19:07:03.621Z,47.20
2018-08-16T19:09:32.390Z,47.70
2018-08-16T19:12:01.177Z,47.60
2018-08-16T19:14:29.831Z,47.70
2018-08-16T19:16:58.534Z,47.70
2018-08-16T19:19:27.407Z,47.90
2018-08-16T19:21:56.240Z,48.10
2018-08-16T19:24:25.103Z,48.30
2018-08-16T19:26:53.783Z,48.60
2018-08-16T19:29:22.495Z,48.80
2018-08-16T19:31:51.192Z,48.80
2018-08-16T19:34:19.942Z,49.00
2018-08-16T19:36:50.512Z,49.20
2018-08-16T19:39:19.479Z,49.50
2018-08-16T19:41:48.234Z,50.30
2018-08-16T19:44:19.675Z,49.70
2018-08-16T19:46:48.644Z,49.90
2018-08-16T19:49:17.559Z,50.00
2018-08-16T19:51:47.288Z,49.90
2018-08-16T19:54:16.197Z,49.70
2018-08-16T19:56:45.273Z,49.50
2018-08-16T19:59:14.215Z,49.50
2018-08-16T20:01:42.954Z,48.80
2018-08-16T20:04:11.850Z,49.50
2018-08-16T20:06:40.682Z,49.60
2018-08-16T20:09:10.671Z,49.60
2018-08-16T20:11:41.367Z,49.70
2018-08-16T20:14:10.441Z,49.50
2018-08-16T20:16:39.475Z,49.70
2018-08-16T20:19:08.268Z,49.30
2018-08-16T20:21:37.040Z,49.50
2018-08-16T20:24:05.810Z,49.40
2018-08-16T20:26:34.660Z,49.40
2018-08-16T20:29:03.312Z,49.60
2018-08-16T20:31:32.238Z,49.20
2018-08-16T20:34:00.984Z,49.20
2018-08-16T20:36:29.639Z,49.10
2018-08-16T20:38:58.345Z,48.90
2018-08-16T20:41:27.033Z,48.80
2018-08-16T20:43:55.765Z,48.70
2018-08-16T20:46:24.566Z,48.70
2018-08-16T20:48:53.606Z,48.70
2018-08-16T20:51:22.258Z,48.70
2018-08-16T20:53:50.980Z,48.80
2018-08-16T20:56:34.913Z,49.20
2018-08-16T20:59:03.702Z,49.10
2018-08-16T21:01:32.362Z,49.50
2018-08-16T21:04:02.742Z,49.40
2018-08-16T21:06:31.451Z,49.30
2018-08-16T21:09:00.236Z,49.50
2018-08-16T21:11:28.976Z,49.60
2018-08-16T21:13:57.987Z,48.20
2018-08-16T21:16:26.691Z,49.70
2018-08-16T21:18:56.994Z,49.80
2018-08-16T21:21:25.875Z,49.90
2018-08-16T21:23:54.884Z,49.70
2018-08-16T21:26:23.737Z,50.00
2018-08-16T21:28:52.566Z,50.00
2018-08-16T21:31:21.349Z,50.00
2018-08-16T21:33:50.254Z,49.90
2018-08-16T21:36:19.054Z,50.20
2018-08-16T21:38:47.749Z,50.20
2018-08-16T21:41:17.569Z,50.30
2018-08-16T21:43:46.294Z,50.20
2018-08-16T21:46:15.628Z,50.30
2018-08-16T21:48:44.291Z,50.30
2018-08-16T21:51:12.950Z,50.50
2018-08-16T21:53:41.695Z,50.50
2018-08-16T21:56:10.394Z,50.20
2018-08-16T21:58:39.125Z,50.10
2018-08-16T22:01:08.534Z,49.90
2018-08-16T22:03:37.233Z,50.10
2018-08-16T22:06:09.231Z,50.50
2018-08-16T22:08:52.704Z,50.60
2018-08-16T22:11:21.936Z,50.80
2018-08-16T22:13:50.743Z,51.10
2018-08-16T22:16:19.652Z,51.00
2018-08-16T22:18:48.509Z,51.60
2018-08-16T22:21:17.178Z,51.20
2018-08-16T22:23:45.874Z,49.50
2018-08-16T22:26:15.013Z,51.00
2018-08-16T22:28:43.663Z,50.50
2018-08-16T22:31:12.427Z,50.30
2018-08-16T22:33:41.203Z,50.10
2018-08-16T22:36:09.954Z,49.80
2018-08-16T22:38:43.121Z,49.80
2018-08-16T22:41:17.186Z,49.90
2018-08-16T22:43:46.082Z,49.30
2018-08-16T22:46:14.742Z,49.60
2018-08-16T22:48:43.401Z,49.50
2018-08-16T22:51:12.114Z,49.40
2018-08-16T22:53:40.815Z,49.30
2018-08-16T22:56:09.463Z,49.40
2018-08-16T22:58:38.285Z,49.50
2018-08-16T23:01:07.147Z,49.50
2018-08-16T23:03:35.780Z,49.50
2018-08-16T23:06:07.005Z,49.50
2018-08-16T23:08:35.870Z,49.50
2018-08-16T23:11:04.676Z,49.50
2018-08-16T23:13:33.353Z,49.40
2018-08-16T23:16:03.036Z,49.50
2018-08-16T23:18:32.503Z,49.60
2018-08-16T23:21:01.202Z,49.80
2018-08-16T23:23:33.126Z,49.90
2018-08-16T23:26:03.185Z,49.70
2018-08-16T23:28:32.209Z,49.70
2018-08-16T23:31:01.855Z,49.30
2018-08-16T23:33:30.603Z,49.30
2018-08-16T23:35:59.323Z,49.40
2018-08-16T23:38:27.916Z,49.40
2018-08-16T23:40:59.631Z,49.40
2018-08-16T23:43:28.291Z,49.50
2018-08-16T23:45:57.022Z,52.50
2018-08-16T23:48:31.394Z,52.00
2018-08-16T23:51:00.222Z,52.80
2018-08-16T23:53:28.878Z,52.10
2018-08-16T23:55:59.130Z,53.20
2018-08-16T23:58:27.956Z,52.10
